createdAt,value
2022-12-22T05:00:32.232Z,2.27
2022-12-22T05:03:04.015Z,2.43
2022-12-22T05:05:35.823Z,1.67
2022-12-22T05:08:07.491Z,2.30
2022-12-22T05:10:39.115Z,4.33
2022-12-22T05:13:10.753Z,5.30
2022-12-22T05:15:43.745Z,2.87
2022-12-22T05:18:15.438Z,2.30
2022-12-22T05:20:47.111Z,2.20
2022-12-22T05:23:18.812Z,4.70
2022-12-22T05:25:50.461Z,4.20
2022-12-22T05:28:22.149Z,4.63
2022-12-22T05:30:55.353Z,5.00
2022-12-22T05:33:27.034Z,5.70
2022-12-22T05:35:58.667Z,4.80
2022-12-22T05:38:30.301Z,4.20
2022-12-22T05:41:04.562Z,5.10
2022-12-22T05:43:36.446Z,3.93
2022-12-22T05:46:10.130Z,4.10
2022-12-22T05:48:41.897Z,5.70
2022-12-22T05:51:13.529Z,7.87
2022-12-22T05:53:45.196Z,4.77
2022-12-22T05:56:16.838Z,8.13
2022-12-22T05:58:48.508Z,5.20
2022-12-22T06:01:21.685Z,3.83
2022-12-22T06:03:59.507Z,9.80
2022-12-22T06:06:31.955Z,9.47
2022-12-22T06:09:03.730Z,6.63
2022-12-22T06:11:35.391Z,6.20
2022-12-22T06:14:07.059Z,8.02
2022-12-22T06:16:40.127Z,11.93
2022-12-22T06:19:11.838Z,12.50
2022-12-22T06:21:43.487Z,11.90
2022-12-22T06:24:15.131Z,6.77
2022-12-22T06:26:46.773Z,6.33
2022-12-22T06:29:18.425Z,12.30
2022-12-22T06:31:51.414Z,8.60
2022-12-22T06:34:23.053Z,6.93
2022-12-22T06:36:54.691Z,5.40
2022-12-22T06:39:26.362Z,6.70
2022-12-22T06:41:58.033Z,7.90
2022-12-22T06:44:29.684Z,8.50
2022-12-22T06:47:02.670Z,7.73
2022-12-22T06:49:34.344Z,6.73
2022-12-22T06:52:07.387Z,9.40
2022-12-22T06:54:39.038Z,7.57
2022-12-22T06:57:10.703Z,10.47
2022-12-22T06:59:42.439Z,12.77
2022-12-22T07:02:15.550Z,9.97
2022-12-22T07:04:47.321Z,12.33
2022-12-22T07:07:18.959Z,8.43
2022-12-22T07:09:50.626Z,9.07
2022-12-22T07:12:22.333Z,9.10
2022-12-22T07:14:53.996Z,9.37
2022-12-22T07:17:26.978Z,10.47
2022-12-22T07:19:58.657Z,12.63
2022-12-22T07:22:31.205Z,12.10
2022-12-22T07:25:03.061Z,12.83
2022-12-22T07:27:34.722Z,12.33
2022-12-22T07:30:07.512Z,14.43
2022-12-22T07:32:40.498Z,14.33
2022-12-22T07:35:12.232Z,15.43
2022-12-22T07:37:43.887Z,14.50
2022-12-22T07:40:16.016Z,14.77
2022-12-22T07:42:47.704Z,16.57
2022-12-22T07:45:19.934Z,15.97
2022-12-22T07:47:58.248Z,15.20
2022-12-22T07:50:29.941Z,16.50
2022-12-22T07:53:02.551Z,14.77
2022-12-22T07:55:35.778Z,19.33
2022-12-22T07:58:07.444Z,19.57
2022-12-22T08:00:39.148Z,19.50
2022-12-22T08:03:12.369Z,17.87
2022-12-22T08:05:44.163Z,15.10
2022-12-22T08:08:15.822Z,17.10
2022-12-22T08:10:47.502Z,14.80
2022-12-22T08:13:19.204Z,16.37
2022-12-22T08:15:50.910Z,18.63
2022-12-22T08:18:23.942Z,18.83
2022-12-22T08:20:55.630Z,15.80
2022-12-22T08:23:27.287Z,14.17
2022-12-22T08:26:00.338Z,16.30
2022-12-22T08:28:33.204Z,15.03
2022-12-22T08:31:05.185Z,13.27
2022-12-22T08:33:38.212Z,13.13
2022-12-22T08:36:10.053Z,15.40
2022-12-22T08:38:41.718Z,18.47
2022-12-22T08:41:14.178Z,18.13
2022-12-22T08:43:45.821Z,17.43
2022-12-22T08:46:17.619Z,17.33
2022-12-22T08:48:50.660Z,16.40
2022-12-22T08:51:22.353Z,18.83
2022-12-22T08:54:09.431Z,19.43
2022-12-22T08:56:41.299Z,22.10
2022-12-22T08:59:13.147Z,20.33
2022-12-22T09:01:45.298Z,23.30
2022-12-22T09:04:19.447Z,23.23
2022-12-22T09:06:51.723Z,19.80
2022-12-22T09:09:23.396Z,22.43
2022-12-22T09:11:55.088Z,23.57
2022-12-22T09:14:27.036Z,23.70
2022-12-22T09:16:58.830Z,24.57
2022-12-22T09:19:31.918Z,26.53
2022-12-22T09:22:03.604Z,25.43
2022-12-22T09:24:35.268Z,30.90
2022-12-22T09:27:06.961Z,28.47
2022-12-22T09:29:39.917Z,29.43
2022-12-22T09:32:11.712Z,29.37
2022-12-22T09:34:44.755Z,34.33
2022-12-22T09:37:16.724Z,29.63
2022-12-22T09:39:48.472Z,32.43
2022-12-22T09:42:20.614Z,30.63
2022-12-22T09:44:52.313Z,29.13
2022-12-22T09:47:26.245Z,26.17
2022-12-22T09:49:59.262Z,28.60
2022-12-22T09:52:39.279Z,26.43
2022-12-22T09:55:15.950Z,25.13
2022-12-22T09:57:47.627Z,27.97
2022-12-22T10:00:21.041Z,25.93
2022-12-22T10:02:56.276Z,24.10
2022-12-22T10:05:32.038Z,24.77
2022-12-22T10:08:09.950Z,25.63
2022-12-22T10:10:41.678Z,25.87
2022-12-22T10:13:17.073Z,30.90
2022-12-22T10:15:49.061Z,24.80
2022-12-22T10:18:21.616Z,25.53
2022-12-22T10:21:09.111Z,25.27
2022-12-22T10:23:43.890Z,26.33
2022-12-22T10:26:28.135Z,30.10
2022-12-22T10:29:03.346Z,29.93
2022-12-22T10:31:35.480Z,30.67
2022-12-22T10:34:11.573Z,29.93
2022-12-22T10:36:46.945Z,35.90
2022-12-22T10:39:22.830Z,31.70
2022-12-22T10:41:56.269Z,35.47
2022-12-22T10:44:28.812Z,33.30
2022-12-22T10:47:01.744Z,30.87
2022-12-22T10:52:13.678Z,32.77
2022-12-22T10:54:45.422Z,32.57
2022-12-22T10:57:28.951Z,30.90
2022-12-22T11:00:01.856Z,29.20
2022-12-22T11:02:34.552Z,31.33
2022-12-22T11:05:07.495Z,28.93
2022-12-22T11:07:41.176Z,27.00
2022-12-22T11:10:17.608Z,29.73
2022-12-22T11:13:14.811Z,26.33
2022-12-22T11:15:49.259Z,23.67
2022-12-22T11:18:36.599Z,21.30
2022-12-22T11:21:10.258Z,22.27
2022-12-22T11:23:46.327Z,20.73
2022-12-22T11:26:21.786Z,16.60
2022-12-22T11:29:05.472Z,16.07
2022-12-22T11:31:45.203Z,16.70
2022-12-22T11:34:22.338Z,20.87
2022-12-22T11:37:00.314Z,17.77
2022-12-22T11:39:37.822Z,17.90
2022-12-22T11:42:22.276Z,18.50
2022-12-22T11:45:00.265Z,17.47
2022-12-22T11:47:37.163Z,18.17
2022-12-22T11:51:02.031Z,18.23
2022-12-22T11:53:31.525Z,18.80
2022-12-22T11:56:12.112Z,17.97
2022-12-22T11:58:52.289Z,15.80
2022-12-22T12:01:36.786Z,20.13
2022-12-22T12:04:20.803Z,16.43
2022-12-22T12:07:22.028Z,16.03
2022-12-22T12:10:02.880Z,15.23
2022-12-22T12:12:40.772Z,14.00
2022-12-22T12:15:20.630Z,17.07
2022-12-22T12:18:31.166Z,15.27
2022-12-22T12:21:26.077Z,16.70
2022-12-22T12:24:15.314Z,19.37
2022-12-22T12:26:52.373Z,19.57
2022-12-22T12:29:26.586Z,18.83
2022-12-22T12:31:59.868Z,19.57
2022-12-22T12:34:32.486Z,21.00
2022-12-22T12:37:07.829Z,17.93
2022-12-22T12:39:41.075Z,21.50
2022-12-22T12:42:19.614Z,18.37
2022-12-22T12:44:52.711Z,14.37
2022-12-22T12:47:26.091Z,16.43
2022-12-22T12:49:59.426Z,13.80
2022-12-22T12:53:13.750Z,11.90
2022-12-22T12:56:06.773Z,11.80
2022-12-22T12:58:51.647Z,10.00
2022-12-22T13:01:56.033Z,13.80
2022-12-22T13:05:13.986Z,12.13
2022-12-22T13:08:16.565Z,12.87
2022-12-22T13:10:50.516Z,13.67
2022-12-22T13:13:44.869Z,14.53
2022-12-22T13:16:37.935Z,12.87
2022-12-22T13:19:23.194Z,13.37
2022-12-22T13:21:55.383Z,11.37
2022-12-22T13:24:29.747Z,12.13
2022-12-22T13:27:03.540Z,13.50
2022-12-22T13:29:43.434Z,11.17
2022-12-22T13:32:20.897Z,12.67
2022-12-22T13:37:56.466Z,8.83
2022-12-22T13:40:28.440Z,9.43
2022-12-22T13:43:02.095Z,10.73
2022-12-22T13:45:36.252Z,13.03
2022-12-22T13:48:10.159Z,9.17
2022-12-22T13:50:45.149Z,12.20
2022-12-22T13:53:49.543Z,7.47
2022-12-22T13:56:13.398Z,14.43
2022-12-22T13:58:45.093Z,14.00
2022-12-22T14:01:18.422Z,13.70
2022-12-22T14:04:00.619Z,11.20
2022-12-22T14:06:35.098Z,11.03
2022-12-22T14:09:11.144Z,12.97
2022-12-22T14:11:50.740Z,13.07
2022-12-22T14:14:27.254Z,16.77
2022-12-22T14:16:59.519Z,10.23
2022-12-22T14:19:32.977Z,11.03
2022-12-22T14:22:08.616Z,10.43
2022-12-22T14:24:42.885Z,14.90
2022-12-22T14:27:18.279Z,15.67
2022-12-22T14:29:49.982Z,12.17
2022-12-22T14:32:38.837Z,11.20
2022-12-22T14:35:25.434Z,10.77
2022-12-22T14:38:20.319Z,9.77
2022-12-22T14:40:56.838Z,14.27
2022-12-22T14:43:30.498Z,11.27
2022-12-22T14:46:04.683Z,12.80
2022-12-22T14:48:38.002Z,12.60
2022-12-22T14:51:09.691Z,9.97
2022-12-22T14:53:45.265Z,13.60
2022-12-22T14:56:17.059Z,19.30
2022-12-22T14:58:49.077Z,14.70
2022-12-22T15:01:22.201Z,13.13
2022-12-22T15:04:01.654Z,11.07
2022-12-22T15:06:38.362Z,5.83
2022-12-22T15:10:03.657Z,6.73
2022-12-22T15:12:17.529Z,8.67
2022-12-22T15:14:49.339Z,9.73
2022-12-22T15:17:22.100Z,6.20
2022-12-22T15:19:55.221Z,6.80
2022-12-22T15:22:26.881Z,5.50
2022-12-22T15:24:59.913Z,8.30
2022-12-22T15:27:31.580Z,7.23
2022-12-22T15:30:03.572Z,6.23
2022-12-22T15:32:37.948Z,8.23
2022-12-22T15:35:17.506Z,8.50
2022-12-22T15:37:49.237Z,9.13
2022-12-22T15:40:22.935Z,9.13
2022-12-22T15:42:54.692Z,9.97
2022-12-22T15:45:26.349Z,12.13
2022-12-22T15:47:58.126Z,9.83
2022-12-22T15:50:38.711Z,10.60
2022-12-22T15:53:13.959Z,9.47
2022-12-22T15:55:48.441Z,12.77
2022-12-22T15:58:21.569Z,13.57
2022-12-22T16:00:53.292Z,14.70
2022-12-22T16:03:25.143Z,10.93
2022-12-22T16:05:56.953Z,9.67
2022-12-22T16:08:30.802Z,9.53
2022-12-22T16:11:03.863Z,10.27
2022-12-22T16:13:36.046Z,10.77
2022-12-22T16:16:07.972Z,13.20
2022-12-22T16:18:39.688Z,8.43
2022-12-22T16:21:14.186Z,9.27
2022-12-22T16:23:46.579Z,8.30
2022-12-22T16:26:20.111Z,8.10
2022-12-22T16:28:51.792Z,8.97
2022-12-22T16:31:24.171Z,10.20
2022-12-22T16:33:55.945Z,8.50
2022-12-22T16:36:27.595Z,9.50
2022-12-22T16:38:59.285Z,8.57
2022-12-22T16:41:32.301Z,8.17
2022-12-22T16:44:05.996Z,6.77
2022-12-22T16:46:38.184Z,5.13
2022-12-22T16:49:09.896Z,4.50
2022-12-22T16:51:45.111Z,3.87
2022-12-22T16:54:16.818Z,5.00
2022-12-22T16:56:49.824Z,4.07
2022-12-22T16:59:21.478Z,3.50
2022-12-22T17:01:53.993Z,5.80
2022-12-22T17:04:27.931Z,9.80
2022-12-22T17:07:00.220Z,5.17
2022-12-22T17:09:42.005Z,5.63
2022-12-22T17:12:17.667Z,12.70
2022-12-22T17:15:01.343Z,8.10
2022-12-22T17:17:37.138Z,14.70
2022-12-22T17:20:14.086Z,32.57
2022-12-22T17:22:46.927Z,15.53
2022-12-22T17:25:20.228Z,6.73
2022-12-22T17:27:53.360Z,2.30
2022-12-22T17:30:25.960Z,3.80
2022-12-22T17:32:57.635Z,3.60
2022-12-22T17:35:29.304Z,2.93
2022-12-22T17:38:00.946Z,2.90
2022-12-22T17:40:32.664Z,2.17
2022-12-22T17:43:05.721Z,4.13
2022-12-22T17:45:37.392Z,5.93
2022-12-22T17:48:09.046Z,3.33
2022-12-22T17:50:40.938Z,4.10
2022-12-22T17:53:14.115Z,2.67
2022-12-22T17:58:38.790Z,3.37
2022-12-22T18:01:19.434Z,4.90
2022-12-22T18:03:51.229Z,6.47
2022-12-22T18:06:25.226Z,3.40
2022-12-22T18:08:56.884Z,5.10
2022-12-22T18:11:28.551Z,5.97
2022-12-22T18:14:01.574Z,4.83
2022-12-22T18:16:33.297Z,5.90
2022-12-22T18:19:04.979Z,5.07
2022-12-22T18:21:36.669Z,6.17
2022-12-22T18:24:10.311Z,3.30
2022-12-22T18:26:42.053Z,4.37
2022-12-22T18:29:15.421Z,4.10
2022-12-22T18:31:47.242Z,5.67
2022-12-22T18:34:18.975Z,3.43
2022-12-22T18:36:50.651Z,3.87
2022-12-22T18:39:22.335Z,5.33
2022-12-22T18:41:54.023Z,5.03
2022-12-22T18:44:27.061Z,4.27
2022-12-22T18:46:58.777Z,3.93
2022-12-22T18:49:30.711Z,7.63
2022-12-22T18:52:02.438Z,4.67
2022-12-22T18:54:34.099Z,8.63
2022-12-22T18:57:08.684Z,6.10
2022-12-22T18:59:41.798Z,8.13
2022-12-22T19:02:19.976Z,5.90
2022-12-22T19:04:51.697Z,9.63
2022-12-22T19:07:24.359Z,10.10
2022-12-22T19:09:56.011Z,10.40
2022-12-22T19:12:27.679Z,11.73
2022-12-22T19:15:03.693Z,12.40
2022-12-22T19:17:35.352Z,10.17
2022-12-22T19:20:11.064Z,12.00
2022-12-22T19:22:43.184Z,9.50
2022-12-22T19:25:15.020Z,8.60
2022-12-22T19:27:46.915Z,6.77
2022-12-22T19:30:20.878Z,10.90
2022-12-22T19:32:54.164Z,11.73
2022-12-22T19:35:25.956Z,14.03
2022-12-22T19:37:57.985Z,11.37
2022-12-22T19:40:30.835Z,11.03
2022-12-22T19:43:02.513Z,12.67
2022-12-22T19:45:35.639Z,11.37
2022-12-22T19:48:15.151Z,12.83
2022-12-22T19:50:46.893Z,16.83
2022-12-22T19:53:18.691Z,11.30
2022-12-22T19:55:51.331Z,14.33
2022-12-22T19:58:24.197Z,13.00
2022-12-22T20:00:57.269Z,15.03
2022-12-22T20:03:29.064Z,11.63
2022-12-22T20:06:00.802Z,16.33
2022-12-22T20:08:32.496Z,12.83
2022-12-22T20:11:05.970Z,12.57
2022-12-22T20:13:37.629Z,13.77
2022-12-22T20:16:12.610Z,15.43
2022-12-22T20:18:44.354Z,15.10
2022-12-22T20:21:17.882Z,11.70
2022-12-22T20:23:49.572Z,13.20
2022-12-22T20:26:22.167Z,13.53
2022-12-22T20:28:54.016Z,11.63
2022-12-22T20:31:27.064Z,12.80
2022-12-22T20:33:58.745Z,13.73
2022-12-22T20:36:30.422Z,11.33
2022-12-22T20:39:02.208Z,12.50
2022-12-22T20:41:33.880Z,9.70
2022-12-22T20:44:05.889Z,15.97
2022-12-22T20:46:38.993Z,10.57
2022-12-22T20:49:12.908Z,15.47
2022-12-22T20:51:44.578Z,17.97
2022-12-22T20:54:16.395Z,15.33
2022-12-22T20:56:48.078Z,19.07
2022-12-22T20:59:21.166Z,12.40
2022-12-22T21:01:54.263Z,14.27
2022-12-22T21:04:26.012Z,13.70
2022-12-22T21:06:57.742Z,14.17
2022-12-22T21:09:29.432Z,11.87
2022-12-22T21:12:01.108Z,17.57
2022-12-22T21:14:32.751Z,16.50
2022-12-22T21:17:07.015Z,12.50
2022-12-22T21:19:38.731Z,13.93
2022-12-22T21:22:11.372Z,17.00
2022-12-22T21:24:43.029Z,16.50
2022-12-22T21:27:16.934Z,15.87
2022-12-22T21:29:48.599Z,16.23
2022-12-22T21:32:21.634Z,11.97
2022-12-22T21:34:53.286Z,18.57
2022-12-22T21:37:24.961Z,18.97
2022-12-22T21:39:56.649Z,12.70
2022-12-22T21:42:28.316Z,14.73
2022-12-22T21:44:59.982Z,17.07
2022-12-22T21:47:33.008Z,15.03
2022-12-22T21:50:05.539Z,14.47
2022-12-22T21:52:37.205Z,14.27
2022-12-22T21:55:08.956Z,11.63
2022-12-22T21:57:40.605Z,14.07
2022-12-22T22:00:13.424Z,16.87
2022-12-22T22:02:46.714Z,15.43
2022-12-22T22:05:23.499Z,14.30
2022-12-22T22:07:55.535Z,16.77
2022-12-22T22:10:28.644Z,12.90
2022-12-22T22:13:00.738Z,17.87
2022-12-22T22:15:32.524Z,13.80
2022-12-22T22:18:07.527Z,13.50
2022-12-22T22:20:40.878Z,16.77
2022-12-22T22:23:13.536Z,13.03
2022-12-22T22:25:45.203Z,14.23
2022-12-22T22:28:16.886Z,18.60
2022-12-22T22:30:48.599Z,13.53
2022-12-22T22:33:21.645Z,14.80
2022-12-22T22:35:53.334Z,15.93
2022-12-22T22:38:25.000Z,11.97
2022-12-22T22:40:56.643Z,12.83
2022-12-22T22:43:28.318Z,9.90
2022-12-22T22:45:59.991Z,11.73
2022-12-22T22:48:33.111Z,15.93
2022-12-22T22:51:05.094Z,14.60
2022-12-22T22:53:36.751Z,11.77
2022-12-22T22:56:08.461Z,9.67
2022-12-22T22:58:40.156Z,8.77
